Terminal Aerodrome Forecast
Issued by NWS

Home | Current Version | Previous Version | Text Only | Print | Product List | Glossary On
Versions: 1 2 3 4 5 6 7 8 9 10 11 12 13 14 15 16 17
000
FTUS46 KMTR 201121
TAFOAK
TAF
KOAK 201121Z 2012/2118 27009KT P6SM FEW007 BKN012 OVC016
     FM201900 28010KT P6SM FEW012
     FM202100 30012KT P6SM FEW012 SCT250
     FM210600 30008KT P6SM BKN015=

USA.gov is the U.S. government's official web portal to all federal, state and local government web resources and services.